sensor_id;sensor_type;location;lat;lon;timestamp;pressure;altitude;pressure_sealevel;temperature;humidity
63111;BME280;49201;53.426;10.300;2023-05-23T00:00:24;101298.34;;;17.18;100.00
63111;BME280;49201;53.426;10.300;2023-05-23T00:02:50;101297.50;;;17.09;100.00
63111;BME280;49201;53.426;10.300;2023-05-23T00:05:15;101288.00;;;17.06;100.00
63111;BME280;49201;53.426;10.300;2023-05-23T00:07:43;101290.59;;;16.99;100.00
63111;BME280;49201;53.426;10.300;2023-05-23T00:10:09;101294.88;;;17.03;100.00
63111;BME280;49201;53.426;10.300;2023-05-23T00:12:35;101292.31;;;17.01;100.00
63111;BME280;49201;53.426;10.300;2023-05-23T00:15:02;101294.03;;;17.01;100.00
63111;BME280;49201;53.426;10.300;2023-05-23T00:17:27;101291.44;;;17.01;100.00
63111;BME280;49201;53.426;10.300;2023-05-23T00:19:53;101289.72;;;17.01;100.00
63111;BME280;49201;53.426;10.300;2023-05-23T00:22:20;101295.75;;;16.94;100.00
63111;BME280;49201;53.426;10.300;2023-05-23T00:24:46;101298.34;;;16.82;100.00
63111;BME280;49201;53.426;10.300;2023-05-23T00:27:11;101291.41;;;16.83;100.00
63111;BME280;49201;53.426;10.300;2023-05-23T00:29:37;101300.06;;;16.83;100.00
63111;BME280;49201;53.426;10.300;2023-05-23T00:32:02;101294.88;;;16.86;100.00
63111;BME280;49201;53.426;10.300;2023-05-23T00:34:28;101301.75;;;16.89;100.00
63111;BME280;49201;53.426;10.300;2023-05-23T00:36:53;101300.94;;;16.90;100.00
63111;BME280;49201;53.426;10.300;2023-05-23T00:39:19;101294.00;;;16.89;100.00
63111;BME280;49201;53.426;10.300;2023-05-23T00:41:46;101294.88;;;16.89;100.00
63111;BME280;49201;53.426;10.300;2023-05-23T00:44:12;101284.53;;;16.85;100.00
63111;BME280;49201;53.426;10.300;2023-05-23T00:46:39;101276.78;;;16.85;100.00
63111;BME280;49201;53.426;10.300;2023-05-23T00:49:06;101283.66;;;16.84;100.00
63111;BME280;49201;53.426;10.300;2023-05-23T00:51:32;101287.97;;;16.81;100.00
63111;BME280;49201;53.426;10.300;2023-05-23T00:53:59;101282.78;;;16.85;100.00
63111;BME280;49201;53.426;10.300;2023-05-23T00:56:25;101291.44;;;16.84;100.00
63111;BME280;49201;53.426;10.300;2023-05-23T00:58:53;101284.53;;;16.85;100.00
63111;BME280;49201;53.426;10.300;2023-05-23T01:01:19;101281.94;;;16.88;100.00
63111;BME280;49201;53.426;10.300;2023-05-23T01:03:44;101286.25;;;16.78;100.00
63111;BME280;49201;53.426;10.300;2023-05-23T01:06:13;101285.38;;;16.79;100.00
63111;BME280;49201;53.426;10.300;2023-05-23T01:08:39;101281.91;;;16.79;100.00
63111;BME280;49201;53.426;10.300;2023-05-23T01:11:12;101284.53;;;16.82;100.00
63111;BME280;49201;53.426;10.300;2023-05-23T01:14:06;101272.44;;;16.79;100.00
63111;BME280;49201;53.426;10.300;2023-05-23T01:16:57;101268.13;;;16.77;100.00
63111;BME280;49201;53.426;10.300;2023-05-23T01:20:06;101264.69;;;16.81;100.00
63111;BME280;49201;53.426;10.300;2023-05-23T01:22:58;101274.16;;;16.80;100.00
63111;BME280;49201;53.426;10.300;2023-05-23T01:26:02;101262.94;;;16.81;100.00
63111;BME280;49201;53.426;10.300;2023-05-23T01:28:36;101262.09;;;16.81;100.00
63111;BME280;49201;53.426;10.300;2023-05-23T01:31:03;101257.81;;;16.86;100.00
63111;BME280;49201;53.426;10.300;2023-05-23T01:33:31;101259.53;;;16.87;100.00
63111;BME280;49201;53.426;10.300;2023-05-23T01:36:00;101258.66;;;16.85;100.00
63111;BME280;49201;53.426;10.300;2023-05-23T01:38:27;101257.78;;;16.84;100.00
63111;BME280;49201;53.426;10.300;2023-05-23T01:40:53;101255.19;;;16.83;100.00
63111;BME280;49201;53.426;10.300;2023-05-23T01:43:19;101247.44;;;16.78;100.00
63111;BME280;49201;53.426;10.300;2023-05-23T01:45:45;101246.56;;;16.78;100.00
63111;BME280;49201;53.426;10.300;2023-05-23T01:48:12;101252.63;;;16.77;100.00
63111;BME280;49201;53.426;10.300;2023-05-23T01:50:39;101253.47;;;16.79;100.00
63111;BME280;49201;53.426;10.300;2023-05-23T01:53:06;101257.81;;;16.80;100.00
63111;BME280;49201;53.426;10.300;2023-05-23T01:55:33;101254.34;;;16.84;100.00
63111;BME280;49201;53.426;10.300;2023-05-23T01:57:59;101252.63;;;16.86;100.00
63111;BME280;49201;53.426;10.300;2023-05-23T02:00:25;101256.94;;;16.87;100.00
63111;BME280;49201;53.426;10.300;2023-05-23T02:02:51;101255.22;;;16.87;100.00
63111;BME280;49201;53.426;10.300;2023-05-23T02:05:16;101253.47;;;16.88;100.00
63111;BME280;49201;53.426;10.300;2023-05-23T02:07:42;101250.03;;;16.83;100.00
63111;BME280;49201;53.426;10.300;2023-05-23T02:10:08;101254.34;;;16.81;100.00
63111;BME280;49201;53.426;10.300;2023-05-23T02:12:34;101254.34;;;16.78;100.00
63111;BME280;49201;53.426;10.300;2023-05-23T02:14:59;101259.50;;;16.75;100.00
63111;BME280;49201;53.426;10.300;2023-05-23T02:17:25;101256.91;;;16.75;100.00
63111;BME280;49201;53.426;10.300;2023-05-23T02:19:50;101265.53;;;16.72;100.00
63111;BME280;49201;53.426;10.300;2023-05-23T02:22:16;101263.81;;;16.68;100.00
63111;BME280;49201;53.426;10.300;2023-05-23T02:24:42;101266.41;;;16.59;100.00
63111;BME280;49201;53.426;10.300;2023-05-23T02:27:07;101256.03;;;16.53;100.00
63111;BME280;49201;53.426;10.300;2023-05-23T02:29:33;101258.59;;;16.52;100.00
63111;BME280;49201;53.426;10.300;2023-05-23T02:31:58;101256.88;;;16.52;100.00
63111;BME280;49201;53.426;10.300;2023-05-23T02:34:24;101253.44;;;16.50;100.00
63111;BME280;49201;53.426;10.300;2023-05-23T02:36:50;101257.75;;;16.54;100.00
63111;BME280;49201;53.426;10.300;2023-05-23T02:39:16;101261.22;;;16.56;100.00
63111;BME280;49201;53.426;10.300;2023-05-23T02:41:43;101263.78;;;16.55;100.00
63111;BME280;49201;53.426;10.300;2023-05-23T02:44:09;101263.78;;;16.50;100.00
63111;BME280;49201;53.426;10.300;2023-05-23T02:46:34;101256.03;;;16.50;100.00
63111;BME280;49201;53.426;10.300;2023-05-23T02:49:01;101257.75;;;16.45;100.00
63111;BME280;49201;53.426;10.300;2023-05-23T02:51:27;101262.03;;;16.43;100.00
63111;BME280;49201;53.426;10.300;2023-05-23T02:53:53;101262.91;;;16.41;100.00
63111;BME280;49201;53.426;10.300;2023-05-23T02:56:19;101267.19;;;16.39;100.00
63111;BME280;49201;53.426;10.300;2023-05-23T02:58:46;101271.47;;;16.38;100.00
63111;BME280;49201;53.426;10.300;2023-05-23T03:01:12;101273.19;;;16.38;100.00
63111;BME280;49201;53.426;10.300;2023-05-23T03:03:37;101274.91;;;16.30;100.00
63111;BME280;49201;53.426;10.300;2023-05-23T03:06:04;101274.88;;;16.31;100.00
63111;BME280;49201;53.426;10.300;2023-05-23T03:08:30;101273.16;;;16.29;100.00
63111;BME280;49201;53.426;10.300;2023-05-23T03:10:56;101276.63;;;16.25;100.00
63111;BME280;49201;53.426;10.300;2023-05-23T03:13:21;101273.16;;;16.23;100.00
63111;BME280;49201;53.426;10.300;2023-05-23T03:15:47;101280.88;;;16.15;100.00
63111;BME280;49201;53.426;10.300;2023-05-23T03:18:12;101287.75;;;16.12;100.00
63111;BME280;49201;53.426;10.300;2023-05-23T03:20:38;101273.97;;;16.08;100.00
63111;BME280;49201;53.426;10.300;2023-05-23T03:23:03;101271.38;;;16.10;100.00
63111;BME280;49201;53.426;10.300;2023-05-23T03:25:29;101271.38;;;16.10;100.00
63111;BME280;49201;53.426;10.300;2023-05-23T03:27:54;101271.38;;;16.10;100.00
63111;BME280;49201;53.426;10.300;2023-05-23T03:30:20;101274.84;;;16.10;100.00
63111;BME280;49201;53.426;10.300;2023-05-23T03:32:46;101281.72;;;16.08;100.00
63111;BME280;49201;53.426;10.300;2023-05-23T03:35:12;101285.16;;;16.09;100.00
63111;BME280;49201;53.426;10.300;2023-05-23T03:37:38;101280.88;;;16.11;100.00
63111;BME280;49201;53.426;10.300;2023-05-23T03:40:04;101282.56;;;16.10;100.00
63111;BME280;49201;53.426;10.300;2023-05-23T03:42:31;101284.28;;;16.10;100.00
63111;BME280;49201;53.426;10.300;2023-05-23T03:44:56;101273.97;;;16.08;100.00
63111;BME280;49201;53.426;10.300;2023-05-23T03:47:22;101275.66;;;16.02;100.00
63111;BME280;49201;53.426;10.300;2023-05-23T03:49:49;101274.75;;;15.98;100.00
63111;BME280;49201;53.426;10.300;2023-05-23T03:52:14;101275.63;;;15.97;100.00
63111;BME280;49201;53.426;10.300;2023-05-23T03:54:40;101279.06;;;15.96;100.00
63111;BME280;49201;53.426;10.300;2023-05-23T03:57:07;101286.81;;;15.95;100.00
63111;BME280;49201;53.426;10.300;2023-05-23T03:59:33;101284.22;;;15.89;100.00
63111;BME280;49201;53.426;10.300;2023-05-23T04:02:00;101282.50;;;15.88;100.00
63111;BME280;49201;53.426;10.300;2023-05-23T04:04:26;101286.78;;;15.86;100.00
63111;BME280;49201;53.426;10.300;2023-05-23T04:06:52;101287.63;;;15.85;100.00
63111;BME280;49201;53.426;10.300;2023-05-23T04:09:18;101286.75;;;15.83;100.00
63111;BME280;49201;53.426;10.300;2023-05-23T04:11:45;101285.03;;;15.79;100.00
63111;BME280;49201;53.426;10.300;2023-05-23T04:14:11;101282.44;;;15.82;100.00
63111;BME280;49201;53.426;10.300;2023-05-23T04:16:38;101278.97;;;15.77;100.00
63111;BME280;49201;53.426;10.300;2023-05-23T04:19:06;101279.00;;;15.81;100.00
63111;BME280;49201;53.426;10.300;2023-05-23T04:21:35;101280.69;;;15.79;100.00
63111;BME280;49201;53.426;10.300;2023-05-23T04:24:06;101282.44;;;15.77;100.00
63111;BME280;49201;53.426;10.300;2023-05-23T04:26:32;101280.69;;;15.79;100.00
63111;BME280;49201;53.426;10.300;2023-05-23T04:29:02;101278.09;;;15.73;100.00
63111;BME280;49201;53.426;10.300;2023-05-23T04:31:30;101275.47;;;15.66;100.00
63111;BME280;49201;53.426;10.300;2023-05-23T04:33:55;101276.34;;;15.68;100.00
63111;BME280;49201;53.426;10.300;2023-05-23T04:36:22;101276.34;;;15.69;100.00
63111;BME280;49201;53.426;10.300;2023-05-23T04:38:51;101278.88;;;15.62;100.00
63111;BME280;49201;53.426;10.300;2023-05-23T04:41:17;101284.03;;;15.56;100.00
63111;BME280;49201;53.426;10.300;2023-05-23T04:44:04;101295.19;;;15.55;100.00
63111;BME280;49201;53.426;10.300;2023-05-23T04:46:40;101291.75;;;15.54;100.00
63111;BME280;49201;53.426;10.300;2023-05-23T04:49:16;101286.56;;;15.53;100.00
63111;BME280;49201;53.426;10.300;2023-05-23T04:51:42;101291.75;;;15.54;100.00
63111;BME280;49201;53.426;10.300;2023-05-23T04:54:16;101281.41;;;15.51;100.00
63111;BME280;49201;53.426;10.300;2023-05-23T04:56:42;101288.28;;;15.48;100.00
63111;BME280;49201;53.426;10.300;2023-05-23T04:59:07;101290.00;;;15.49;100.00
63111;BME280;49201;53.426;10.300;2023-05-23T05:01:35;101296.84;;;15.44;100.00
63111;BME280;49201;53.426;10.300;2023-05-23T05:04:07;101291.72;;;15.47;100.00
63111;BME280;49201;53.426;10.300;2023-05-23T05:06:32;101286.47;;;15.41;100.00
63111;BME280;49201;53.426;10.300;2023-05-23T05:08:58;101293.25;;;15.28;100.00
63111;BME280;49201;53.426;10.300;2023-05-23T05:11:25;101292.41;;;15.32;100.00
63111;BME280;49201;53.426;10.300;2023-05-23T05:13:53;101297.47;;;15.20;100.00
63111;BME280;49201;53.426;10.300;2023-05-23T05:16:18;101296.66;;;15.26;100.00
63111;BME280;49201;53.426;10.300;2023-05-23T05:18:44;101302.63;;;15.20;100.00
63111;BME280;49201;53.426;10.300;2023-05-23T05:21:10;101294.91;;;15.19;100.00
63111;BME280;49201;53.426;10.300;2023-05-23T05:23:36;101307.00;;;15.26;100.00
63111;BME280;49201;53.426;10.300;2023-05-23T05:26:01;101315.53;;;15.20;100.00
63111;BME280;49201;53.426;10.300;2023-05-23T05:28:27;101315.56;;;15.19;100.00
63111;BME280;49201;53.426;10.300;2023-05-23T05:30:53;101306.91;;;15.15;100.00
63111;BME280;49201;53.426;10.300;2023-05-23T05:33:20;101312.94;;;15.16;100.00
63111;BME280;49201;53.426;10.300;2023-05-23T05:35:54;101304.34;;;15.17;100.00
63111;BME280;49201;53.426;10.300;2023-05-23T05:38:20;101312.13;;;15.21;100.00
63111;BME280;49201;53.426;10.300;2023-05-23T05:40:45;101306.09;;;15.21;100.00
63111;BME280;49201;53.426;10.300;2023-05-23T05:43:11;101306.97;;;15.21;100.00
63111;BME280;49201;53.426;10.300;2023-05-23T05:45:37;101308.69;;;15.22;100.00
63111;BME280;49201;53.426;10.300;2023-05-23T05:48:04;101306.09;;;15.21;100.00
63111;BME280;49201;53.426;10.300;2023-05-23T05:50:30;101312.97;;;15.22;100.00
63111;BME280;49201;53.426;10.300;2023-05-23T05:52:56;101316.41;;;15.19;100.00
63111;BME280;49201;53.426;10.300;2023-05-23T05:55:21;101314.69;;;15.18;100.00
63111;BME280;49201;53.426;10.300;2023-05-23T05:57:50;101313.84;;;15.21;100.00
63111;BME280;49201;53.426;10.300;2023-05-23T06:00:16;101313.81;;;15.19;100.00
63111;BME280;49201;53.426;10.300;2023-05-23T06:02:53;101313.78;;;15.15;100.00
63111;BME280;49201;53.426;10.300;2023-05-23T06:05:31;101313.78;;;15.13;100.00
63111;BME280;49201;53.426;10.300;2023-05-23T06:07:57;101310.34;;;15.14;100.00
63111;BME280;49201;53.426;10.300;2023-05-23T06:10:22;101317.22;;;15.15;100.00
63111;BME280;49201;53.426;10.300;2023-05-23T06:12:49;101312.06;;;15.12;100.00
63111;BME280;49201;53.426;10.300;2023-05-23T06:15:15;101324.97;;;15.14;100.00
63111;BME280;49201;53.426;10.300;2023-05-23T06:17:41;101321.50;;;15.12;100.00
63111;BME280;49201;53.426;10.300;2023-05-23T06:20:06;101325.81;;;15.14;100.00
63111;BME280;49201;53.426;10.300;2023-05-23T06:22:34;101317.25;;;15.18;100.00
63111;BME280;49201;53.426;10.300;2023-05-23T06:24:59;101319.88;;;15.21;100.00
63111;BME280;49201;53.426;10.300;2023-05-23T06:27:25;101313.81;;;15.19;100.00
63111;BME280;49201;53.426;10.300;2023-05-23T06:29:50;101322.44;;;15.20;100.00
63111;BME280;49201;53.426;10.300;2023-05-23T06:32:16;101319.00;;;15.22;100.00
63111;BME280;49201;53.426;10.300;2023-05-23T06:34:41;101319.03;;;15.24;100.00
63111;BME280;49201;53.426;10.300;2023-05-23T06:37:06;101315.59;;;15.25;100.00
63111;BME280;49201;53.426;10.300;2023-05-23T06:39:32;101313.03;;;15.26;100.00
63111;BME280;49201;53.426;10.300;2023-05-23T06:41:58;101320.78;;;15.26;100.00
63111;BME280;49201;53.426;10.300;2023-05-23T06:44:23;101317.34;;;15.27;100.00
63111;BME280;49201;53.426;10.300;2023-05-23T06:46:52;101316.53;;;15.33;100.00
63111;BME280;49201;53.426;10.300;2023-05-23T06:49:23;101310.56;;;15.38;100.00
63111;BME280;49201;53.426;10.300;2023-05-23T06:51:50;101317.47;;;15.38;100.00
63111;BME280;49201;53.426;10.300;2023-05-23T06:54:16;101322.63;;;15.41;100.00
63111;BME280;49201;53.426;10.300;2023-05-23T06:56:42;101318.38;;;15.44;100.00
63111;BME280;49201;53.426;10.300;2023-05-23T06:59:08;101313.22;;;15.47;100.00
63111;BME280;49201;53.426;10.300;2023-05-23T07:01:33;101322.69;;;15.51;100.00
63111;BME280;49201;53.426;10.300;2023-05-23T07:03:59;101322.69;;;15.51;100.00
63111;BME280;49201;53.426;10.300;2023-05-23T07:06:24;101325.31;;;15.54;100.00
63111;BME280;49201;53.426;10.300;2023-05-23T07:08:52;101327.06;;;15.57;100.00
63111;BME280;49201;53.426;10.300;2023-05-23T07:11:20;101321.91;;;15.58;100.00
63111;BME280;49201;53.426;10.300;2023-05-23T07:13:53;101323.59;;;15.56;100.00
63111;BME280;49201;53.426;10.300;2023-05-23T07:16:28;101321.88;;;15.60;100.00
63111;BME280;49201;53.426;10.300;2023-05-23T07:19:02;101329.63;;;15.60;100.00
63111;BME280;49201;53.426;10.300;2023-05-23T07:21:30;101333.09;;;15.62;100.00
63111;BME280;49201;53.426;10.300;2023-05-23T07:23:56;101333.09;;;15.60;100.00
63111;BME280;49201;53.426;10.300;2023-05-23T07:26:22;101333.09;;;15.62;100.00
63111;BME280;49201;53.426;10.300;2023-05-23T07:28:51;101328.78;;;15.58;100.00
63111;BME280;49201;53.426;10.300;2023-05-23T07:31:16;101332.22;;;15.58;100.00
63111;BME280;49201;53.426;10.300;2023-05-23T07:33:43;101336.50;;;15.56;100.00
63111;BME280;49201;53.426;10.300;2023-05-23T07:36:11;101330.50;;;15.56;100.00
63111;BME280;49201;53.426;10.300;2023-05-23T07:38:36;101335.66;;;15.56;100.00
63111;BME280;49201;53.426;10.300;2023-05-23T07:41:02;101339.06;;;15.55;100.00
63111;BME280;49201;53.426;10.300;2023-05-23T07:43:27;101342.53;;;15.55;100.00
63111;BME280;49201;53.426;10.300;2023-05-23T07:45:53;101339.09;;;15.56;100.00
63111;BME280;49201;53.426;10.300;2023-05-23T07:48:18;101337.38;;;15.55;100.00
63111;BME280;49201;53.426;10.300;2023-05-23T07:50:44;101346.81;;;15.56;100.00
63111;BME280;49201;53.426;10.300;2023-05-23T07:53:10;101347.72;;;15.57;100.00
63111;BME280;49201;53.426;10.300;2023-05-23T07:55:37;101347.66;;;15.52;100.00
63111;BME280;49201;53.426;10.300;2023-05-23T07:58:03;101351.06;;;15.47;100.00
63111;BME280;49201;53.426;10.300;2023-05-23T08:00:30;101355.41;;;15.49;100.00
63111;BME280;49201;53.426;10.300;2023-05-23T08:03:02;101356.25;;;15.47;100.00
63111;BME280;49201;53.426;10.300;2023-05-23T08:05:34;101361.34;;;15.41;100.00
63111;BME280;49201;53.426;10.300;2023-05-23T08:08:00;101357.03;;;15.40;100.00
63111;BME280;49201;53.426;10.300;2023-05-23T08:10:25;101369.06;;;15.41;100.00
63111;BME280;49201;53.426;10.300;2023-05-23T08:12:58;101365.72;;;15.48;100.00
63111;BME280;49201;53.426;10.300;2023-05-23T08:15:27;101381.16;;;15.45;100.00
63111;BME280;49201;53.426;10.300;2023-05-23T08:18:03;101388.91;;;15.45;100.00
63111;BME280;49201;53.426;10.300;2023-05-23T08:20:29;101380.47;;;15.67;100.00
63111;BME280;49201;53.426;10.300;2023-05-23T08:22:59;101384.00;;;15.76;100.00
63111;BME280;49201;53.426;10.300;2023-05-23T08:25:25;101396.97;;;15.84;100.00
63111;BME280;49201;53.426;10.300;2023-05-23T08:27:59;101398.66;;;15.82;100.00
63111;BME280;49201;53.426;10.300;2023-05-23T08:30:39;101398.66;;;15.82;100.00
63111;BME280;49201;53.426;10.300;2023-05-23T08:33:04;101412.53;;;15.91;100.00
63111;BME280;49201;53.426;10.300;2023-05-23T08:35:32;101415.03;;;15.81;100.00
63111;BME280;49201;53.426;10.300;2023-05-23T08:38:04;101409.88;;;15.82;100.00
63111;BME280;49201;53.426;10.300;2023-05-23T08:40:30;101409.91;;;15.85;100.00
63111;BME280;49201;53.426;10.300;2023-05-23T08:43:04;101414.16;;;15.82;100.00
63111;BME280;49201;53.426;10.300;2023-05-23T08:45:30;101420.22;;;15.88;100.00
63111;BME280;49201;53.426;10.300;2023-05-23T08:47:59;101427.22;;;15.97;100.00
63111;BME280;49201;53.426;10.300;2023-05-23T08:50:27;101425.50;;;16.00;100.00
63111;BME280;49201;53.426;10.300;2023-05-23T08:52:55;101430.56;;;15.88;100.00
63111;BME280;49201;53.426;10.300;2023-05-23T08:55:27;101433.97;;;15.83;100.00
63111;BME280;49201;53.426;10.300;2023-05-23T08:57:57;101438.41;;;16.00;100.00
63111;BME280;49201;53.426;10.300;2023-05-23T09:00:51;101440.94;;;15.96;100.00
63111;BME280;49201;53.426;10.300;2023-05-23T09:03:17;101442.69;;;15.98;100.00
63111;BME280;49201;53.426;10.300;2023-05-23T09:06:20;101446.16;;;15.99;100.00
63111;BME280;49201;53.426;10.300;2023-05-23T09:08:46;101459.03;;;15.93;100.00
63111;BME280;49201;53.426;10.300;2023-05-23T09:11:14;101448.66;;;15.90;100.00
63111;BME280;49201;53.426;10.300;2023-05-23T09:13:41;101460.78;;;15.98;100.00
63111;BME280;49201;53.426;10.300;2023-05-23T09:16:11;101472.78;;;15.92;100.00
63111;BME280;49201;53.426;10.300;2023-05-23T09:18:44;101467.63;;;15.90;100.00
63111;BME280;49201;53.426;10.300;2023-05-23T09:21:13;101471.09;;;15.95;100.00
63111;BME280;49201;53.426;10.300;2023-05-23T09:23:49;101478.09;;;16.07;100.00
63111;BME280;49201;53.426;10.300;2023-05-23T09:26:14;101480.81;;;16.29;100.00
63111;BME280;49201;53.426;10.300;2023-05-23T09:28:42;101478.28;;;16.34;100.00
63111;BME280;49201;53.426;10.300;2023-05-23T09:31:09;101487.59;;;16.14;100.00
63111;BME280;49201;53.426;10.300;2023-05-23T09:33:48;101482.53;;;16.29;100.00
63111;BME280;49201;53.426;10.300;2023-05-23T09:36:16;101503.03;;;16.06;100.00
63111;BME280;49201;53.426;10.300;2023-05-23T09:38:44;101502.94;;;15.94;100.00
63111;BME280;49201;53.426;10.300;2023-05-23T09:41:11;101502.09;;;15.94;100.00
63111;BME280;49201;53.426;10.300;2023-05-23T09:43:57;101508.00;;;15.82;100.00
63111;BME280;49201;53.426;10.300;2023-05-23T09:46:27;101512.19;;;15.68;100.00
63111;BME280;49201;53.426;10.300;2023-05-23T09:48:53;101516.31;;;15.51;100.00
63111;BME280;49201;53.426;10.300;2023-05-23T09:51:20;101521.53;;;15.56;100.00
63111;BME280;49201;53.426;10.300;2023-05-23T09:53:46;101518.03;;;15.52;100.00
63111;BME280;49201;53.426;10.300;2023-05-23T09:56:12;101517.03;;;15.38;100.00
63111;BME280;49201;53.426;10.300;2023-05-23T09:58:46;101519.56;;;15.34;100.00
63111;BME280;49201;53.426;10.300;2023-05-23T10:01:13;101526.38;;;15.29;100.00
63111;BME280;49201;53.426;10.300;2023-05-23T10:06:19;101526.16;;;15.11;100.00
63111;BME280;49201;53.426;10.300;2023-05-23T10:09:05;101534.44;;;14.87;100.00
63111;BME280;49201;53.426;10.300;2023-05-23T10:14:09;101551.22;;;14.58;100.00
63111;BME280;49201;53.426;10.300;2023-05-23T10:16:54;101545.19;;;14.55;100.00
63111;BME280;49201;53.426;10.300;2023-05-23T10:19:26;101560.44;;;14.43;100.00
63111;BME280;49201;53.426;10.300;2023-05-23T10:22:01;101566.50;;;14.45;100.00
63111;BME280;49201;53.426;10.300;2023-05-23T10:24:28;101572.44;;;14.41;100.00
63111;BME280;49201;53.426;10.300;2023-05-23T10:26:54;101582.69;;;14.38;100.00
63111;BME280;49201;53.426;10.300;2023-05-23T10:29:21;101577.28;;;14.21;100.00
63111;BME280;49201;53.426;10.300;2023-05-23T10:31:48;101573.00;;;14.22;100.00
63111;BME280;49201;53.426;10.300;2023-05-23T10:37:03;101588.69;;;14.35;100.00
63111;BME280;49201;53.426;10.300;2023-05-23T10:42:16;101591.75;;;14.16;100.00
63111;BME280;49201;53.426;10.300;2023-05-23T10:44:43;101610.44;;;14.05;100.00
63111;BME280;49201;53.426;10.300;2023-05-23T10:47:09;101608.78;;;14.08;100.00
63111;BME280;49201;53.426;10.300;2023-05-23T10:49:48;101620.03;;;14.13;100.00
63111;BME280;49201;53.426;10.300;2023-05-23T10:52:16;101619.13;;;14.10;100.00
63111;BME280;49201;53.426;10.300;2023-05-23T10:54:50;101613.91;;;14.07;100.00
63111;BME280;49201;53.426;10.300;2023-05-23T10:57:18;101622.22;;;13.91;100.00
63111;BME280;49201;53.426;10.300;2023-05-23T10:59:45;101627.41;;;13.94;100.00
63111;BME280;49201;53.426;10.300;2023-05-23T11:02:15;101624.88;;;13.97;100.00
63111;BME280;49201;53.426;10.300;2023-05-23T11:04:42;101633.53;;;13.99;100.00
63111;BME280;49201;53.426;10.300;2023-05-23T11:07:27;101634.19;;;13.90;100.00
63111;BME280;49201;53.426;10.300;2023-05-23T11:10:22;101639.63;;;14.05;100.00
63111;BME280;49201;53.426;10.300;2023-05-23T11:12:48;101641.38;;;14.06;100.00
63111;BME280;49201;53.426;10.300;2023-05-23T11:17:51;101647.34;;;14.05;100.00
63111;BME280;49201;53.426;10.300;2023-05-23T11:20:17;101652.47;;;14.02;100.00
63111;BME280;49201;53.426;10.300;2023-05-23T11:28:05;101667.00;;;14.00;100.00
63111;BME280;49201;53.426;10.300;2023-05-23T11:30:30;101669.28;;;13.85;100.00
63111;BME280;49201;53.426;10.300;2023-05-23T11:32:57;101667.75;;;13.93;100.00
63111;BME280;49201;53.426;10.300;2023-05-23T11:35:23;101664.50;;;14.03;100.00
63111;BME280;49201;53.426;10.300;2023-05-23T11:37:49;101671.34;;;14.01;100.00
63111;BME280;49201;53.426;10.300;2023-05-23T11:42:53;101676.47;;;14.00;100.00
63111;BME280;49201;53.426;10.300;2023-05-23T11:45:19;101674.94;;;14.11;100.00
63111;BME280;49201;53.426;10.300;2023-05-23T11:47:45;101680.31;;;14.21;100.00
63111;BME280;49201;53.426;10.300;2023-05-23T11:50:10;101687.31;;;14.28;100.00
63111;BME280;49201;53.426;10.300;2023-05-23T11:52:36;101684.06;;;14.40;100.00
63111;BME280;49201;53.426;10.300;2023-05-23T11:55:01;101687.25;;;14.74;100.00
63111;BME280;49201;53.426;10.300;2023-05-23T11:57:27;101690.28;;;15.03;100.00
63111;BME280;49201;53.426;10.300;2023-05-23T11:59:53;101675.19;;;15.30;100.00
63111;BME280;49201;53.426;10.300;2023-05-23T12:02:20;101682.81;;;15.21;100.00
63111;BME280;49201;53.426;10.300;2023-05-23T12:04:47;101694.78;;;15.16;100.00
63111;BME280;49201;53.426;10.300;2023-05-23T12:07:13;101697.41;;;15.20;100.00
63111;BME280;49201;53.426;10.300;2023-05-23T12:09:45;101642.06;;;15.58;100.00
63111;BME280;49201;53.426;10.300;2023-05-23T12:12:11;101653.81;;;16.10;100.00
63111;BME280;49201;53.426;10.300;2023-05-23T12:14:37;101625.53;;;16.26;100.00
63111;BME280;49201;53.426;10.300;2023-05-23T12:17:10;101628.56;;;15.83;100.00
63111;BME280;49201;53.426;10.300;2023-05-23T12:19:37;101687.25;;;15.95;100.00
63111;BME280;49201;53.426;10.300;2023-05-23T12:22:06;101689.47;;;15.65;100.00
63111;BME280;49201;53.426;10.300;2023-05-23T12:24:32;101717.13;;;15.73;100.00
63111;BME280;49201;53.426;10.300;2023-05-23T12:26:59;101686.84;;;15.62;100.00
63111;BME280;49201;53.426;10.300;2023-05-23T12:29:33;101700.91;;;15.85;100.00
63111;BME280;49201;53.426;10.300;2023-05-23T12:32:00;101666.09;;;16.32;100.00
63111;BME280;49201;53.426;10.300;2023-05-23T12:34:27;101609.63;;;16.83;100.00
63111;BME280;49201;53.426;10.300;2023-05-23T12:36:56;101528.72;;;17.15;100.00
63111;BME280;49201;53.426;10.300;2023-05-23T12:39:27;101520.94;;;17.14;100.00
63111;BME280;49201;53.426;10.300;2023-05-23T12:41:52;101482.22;;;17.48;100.00
63111;BME280;49201;53.426;10.300;2023-05-23T12:44:20;101501.09;;;17.23;100.00
63111;BME280;49201;53.426;10.300;2023-05-23T12:46:46;101421.78;;;17.49;100.00
63111;BME280;49201;53.426;10.300;2023-05-23T12:49:12;101389.84;;;17.67;100.00
63111;BME280;49201;53.426;10.300;2023-05-23T12:51:38;101428.69;;;17.44;100.00
63111;BME280;49201;53.426;10.300;2023-05-23T12:54:04;101450.19;;;17.16;100.00
63111;BME280;49201;53.426;10.300;2023-05-23T12:56:29;101467.47;;;17.20;100.00